Terminal Aerodrome Forecast
Issued by NWS Charleston, WV

Current Version | Previous Version | Graphics & Text | Print | Product List | Glossary On
Versions: 1 2 3 4 5 6 7 8 9 10 11 12 13 14 15 16 17 18 19 20 21 22 23 24 25 26 27 28 29
533
FTUS41 KRLX 191043 AAC
TAFBKW
TAF AMD
KBKW 191043Z 1911/2006 00000KT 1SM BR BKN002
     FM191300 VRB03KT P6SM FEW002
     FM191500 VRB03KT P6SM SCT080=

USA.gov is the U.S. government's official web portal to all federal, state and local government web resources and services.